Date,TemperatureHighF,TemperatureAvgF,TemperatureLowF,DewpointHighF,DewpointAvgF,DewpointLowF,HumidityHigh,HumidityAvg,HumidityLow,PressureMaxIn,PressureMinIn,WindSpeedMaxMPH,WindSpeedAvgMPH,GustSpeedMaxMPH,PrecipitationSumIn
2013-1-1,67.6,56.4,46.2,55.5,49.5,43.0,92,78,61,30.07,29.83,7,2,9,0.00
2013-1-2,61.5,55.5,50.0,57.2,51.3,45.0,94,86,72,30.06,29.78,8,3,14,0.01
2013-1-3,50.2,48.1,44.4,48.2,46.0,41.6,96,92,84,30.18,30.00,6,2,10,0.09
2013-1-4,54.9,39.0,32.2,45.8,34.5,29.0,97,85,42,30.26,30.16,6,1,8,0.01
2013-1-5,56.8,40.8,25.9,39.1,29.6,19.4,92,69,25,30.32,30.19,6,1,11,0.00
2013-1-6,55.9,49.0,41.5,46.2,41.7,37.4,93,77,55,30.18,29.99,4,1,7,0.01
2013-1-7,57.4,43.9,32.9,41.4,33.8,29.5,93,71,35,30.31,30.08,11,3,14,0.00
2013-1-8,65.8,50.3,35.6,48.1,40.9,31.3,89,71,51,30.31,30.22,7,2,13,0.00
2013-1-9,74.5,57.0,43.3,56.3,50.1,40.8,93,80,52,30.30,30.24,6,1,10,0.00
2013-1-10,75.4,59.0,47.3,58.8,51.6,46.2,96,79,46,30.36,30.25,9,3,14,0.06
2013-1-11,77.2,61.2,54.0,64.6,57.2,51.7,96,88,55,30.25,30.06,5,2,9,0.00
2013-1-12,82.9,66.8,58.1,67.1,59.7,55.7,97,81,46,30.10,29.99,6,2,8,0.00
2013-1-13,78.6,64.3,52.3,67.5,58.8,51.5,100,84,53,30.08,29.97,6,2,9,0.00
2013-1-14,81.3,66.5,55.2,66.6,59.7,54.4,97,81,51,30.08,29.98,9,3,16,0.00
2013-1-15,80.6,66.9,55.0,63.5,58.3,53.5,95,76,41,30.05,29.92,8,2,13,0.00
2013-1-16,82.8,69.9,59.4,65.0,61.0,56.4,95,76,45,29.94,29.82,11,4,14,0.00
2013-1-17,80.4,62.8,46.2,62.0,54.6,39.1,92,76,49,29.98,29.57,19,6,26,0.26
2013-1-18,55.2,42.9,31.8,40.2,28.1,12.8,93,62,19,30.40,30.00,14,6,22,0.00
2013-1-19,62.1,44.0,28.8,42.6,33.6,24.4,92,70,41,30.40,30.12,7,2,9,0.00
2013-1-20,70.9,52.0,38.8,44.2,35.7,23.1,94,63,17,30.11,29.93,8,2,13,0.00
2013-1-21,68.7,50.4,31.8,48.7,33.0,24.5,100,59,19,29.99,29.84,9,3,14,0.00
2013-1-22,55.0,44.3,30.7,27.9,22.6,16.2,81,45,23,30.17,29.94,8,4,13,0.00
2013-1-23,55.0,40.3,27.3,33.7,20.4,6.6,81,48,20,30.29,30.05,6,3,10,0.00
2013-1-24,64.9,48.8,32.4,44.6,29.6,1.8,83,51,24,30.38,29.97,16,7,22,0.00
2013-1-25,38.5,33.1,26.8,25.8,13.6,0.9,62,45,31,30.40,30.06,7,3,13,0.00
2013-1-26,57.7,43.1,33.3,36.4,31.4,24.1,85,65,40,30.24,30.01,10,2,13,0.00
2013-1-27,53.8,40.4,30.0,31.8,28.2,24.2,85,64,34,30.43,30.23,10,4,14,0.00
2013-1-28,59.0,44.7,36.3,46.4,38.2,28.5,100,78,62,30.38,30.19,5,2,6,0.00
2013-1-29,80.1,58.4,38.5,62.7,52.7,38.2,100,84,50,30.19,29.99,7,2,12,0.00
2013-1-30,79.7,69.5,54.5,66.1,62.6,50.8,100,80,52,29.99,29.46,20,10,28,0.21
2013-1-31,57.0,49.4,43.3,50.3,30.1,17.4,92,51,22,30.07,29.59,17,8,24,0.07
2013-2-1,55.8,43.9,27.0,31.5,21.1,6.3,61,43,18,30.27,30.01,15,5,20,0.00
2013-2-2,61.7,39.5,22.6,35.3,22.0,11.8,75,53,20,30.30,29.99,6,2,11,0.00
2013-2-3,63.1,50.7,35.8,37.0,30.4,23.9,83,50,25,29.98,29.79,15,5,21,0.00
2013-2-4,52.3,40.4,28.8,36.4,30.3,25.4,89,70,39,30.05,29.93,5,1,9,0.00
2013-2-5,71.4,51.8,35.4,44.5,40.5,32.8,95,70,32,29.96,29.83,8,3,14,0.00
2013-2-6,73.0,54.4,42.1,52.4,42.5,36.6,100,70,28,30.09,29.91,7,2,10,0.00
2013-2-7,54.5,48.0,39.7,51.8,46.8,39.0,100,96,80,30.09,29.69,12,4,19,1.54
2013-2-8,63.5,52.3,45.7,50.2,47.5,44.3,100,85,59,29.97,29.67,12,5,17,0.02
2013-2-9,64.8,45.9,30.7,43.2,31.4,18.8,100,64,18,30.24,29.97,8,2,13,0.00
2013-2-10,64.9,48.9,30.7,50.6,40.9,28.3,100,76,49,30.32,30.08,9,4,16,0.01
2013-2-11,67.6,60.1,51.6,64.1,58.9,49.7,100,96,86,30.14,29.93,10,4,13,1.06
2013-2-12,66.4,57.6,50.9,58.5,53.3,45.8,100,87,49,30.03,29.77,5,2,8,0.74
2013-2-13,64.6,54.2,49.8,60.1,51.0,44.5,100,90,59,29.80,29.59,11,4,16,0.32
2013-2-14,55.8,47.8,39.7,45.7,41.1,37.9,100,79,52,29.97,29.77,6,2,11,0.00
2013-2-15,66.2,47.6,32.5,48.6,38.9,31.8,100,77,32,30.01,29.85,6,2,8,0.00
2013-2-16,49.8,41.9,35.2,44.3,37.6,30.1,96,85,61,29.93,29.73,14,6,21,0.14
2013-2-17,49.1,37.2,30.0,30.6,17.0,5.8,83,48,19,30.20,29.94,13,6,19,0.00
2013-2-18,58.3,41.3,25.0,34.7,23.3,13.3,87,55,19,30.32,30.18,8,3,11,0.00
2013-2-19,56.7,47.1,32.7,54.8,44.4,29.4,100,90,75,30.17,29.87,9,3,13,0.17
2013-2-20,61.5,47.4,33.1,44.9,30.0,14.1,92,57,20,30.06,29.94,6,2,9,0.01
2013-2-21,63.9,43.9,33.4,43.1,32.4,21.0,94,69,23,30.11,29.99,7,2,11,0.00
2013-2-22,47.3,44.0,40.6,44.2,40.1,32.7,100,87,59,30.12,29.99,10,4,16,0.22
2013-2-23,46.6,42.2,39.7,46.3,41.8,39.5,100,99,97,29.99,29.73,7,3,11,0.60
2013-2-24,68.9,51.2,41.2,50.9,45.7,40.9,99,84,44,29.90,29.73,6,1,6,0.02
2013-2-25,47.3,43.3,39.9,44.7,38.2,34.1,99,83,62,30.02,29.86,15,4,15,0.13
2013-2-26,77.2,55.5,42.6,67.7,52.0,38.4,99,89,47,29.90,29.43,14,5,18,0.65
2013-2-27,63.0,53.8,45.3,49.9,40.4,37.9,94,62,43,29.78,29.63,14,5,16,0.00
2013-2-28,59.4,50.7,43.7,41.7,35.2,29.7,83,57,33,29.80,29.68,20,6,22,0.00
2013-3-1,55.6,45.6,37.4,38.5,31.5,28.2,83,60,37,29.86,29.75,11,3,11,0.00
2013-3-2,51.1,43.9,36.5,37.5,33.3,28.0,80,66,50,29.83,29.74,11,4,12,0.00
2013-3-3,49.8,40.0,31.3,34.5,25.6,21.1,82,58,34,29.91,29.81,14,4,17,0.00
2013-3-4,60.3,41.7,25.9,34.2,21.8,12.0,82,50,18,30.08,29.91,13,3,14,0.00
2013-3-5,71.1,54.8,39.2,55.0,42.5,33.9,92,66,37,30.01,29.57,17,5,17,0.12
2013-3-6,57.2,47.8,41.4,50.8,27.3,20.5,79,46,28,30.00,29.59,23,10,24,0.01
2013-3-7,61.7,45.7,34.5,35.1,28.8,23.9,82,54,26,30.13,30.00,13,4,14,0.00
2013-3-8,62.2,45.3,30.6,32.0,25.6,18.2,81,52,19,30.21,30.06,13,4,17,0.00
2013-3-9,65.5,46.5,30.4,38.7,32.0,26.0,90,61,29,30.24,30.12,11,2,13,0.00
2013-3-10,71.1,51.9,33.4,47.6,37.5,31.4,97,64,27,30.20,30.06,10,3,14,0.00
2013-3-11,75.0,58.3,40.6,57.5,49.0,36.5,97,74,44,30.11,29.78,17,4,18,0.00
2013-3-12,75.9,64.5,50.7,66.8,56.7,43.9,95,79,35,29.84,29.69,12,4,14,0.26
2013-3-13,66.0,56.2,40.6,46.0,31.2,18.2,85,44,17,30.03,29.84,22,6,22,0.00
2013-3-14,58.3,44.8,32.2,28.7,21.0,14.7,76,42,20,30.22,30.03,15,4,15,0.00
2013-3-15,71.8,50.7,30.4,43.8,31.7,18.9,93,56,21,30.14,29.89,11,3,13,0.00
2013-3-16,82.4,67.8,56.1,46.5,42.2,35.6,63,42,19,29.90,29.71,17,6,23,0.00
2013-3-17,79.7,68.2,58.1,53.7,50.0,42.9,74,53,37,29.91,29.80,10,4,13,0.00
2013-3-18,67.6,60.5,48.0,59.9,55.0,47.0,98,83,68,29.97,29.73,24,4,25,0.72
2013-3-19,75.9,59.1,48.0,55.2,48.3,37.1,99,73,25,29.91,29.72,14,4,14,0.08
2013-3-20,60.3,50.0,37.8,39.1,29.0,14.2,89,51,19,30.03,29.72,14,2,14,0.00
2013-3-21,59.4,48.5,36.7,37.4,23.0,11.0,91,40,18,29.86,29.69,17,6,17,0.00
2013-3-22,54.3,42.6,32.2,34.2,21.0,11.1,75,44,24,30.00,29.86,11,3,11,0.00
2013-3-23,50.4,44.6,36.7,49.7,42.4,30.8,99,92,77,29.96,29.79,16,2,16,0.34
2013-3-24,53.6,47.9,42.8,52.9,47.4,42.3,99,98,97,29.80,29.42,17,5,21,0.87
2013-3-25,55.2,47.5,41.5,45.6,31.2,21.4,98,57,30,29.86,29.49,24,9,30,0.09
2013-3-26,53.4,43.4,34.5,32.0,26.0,22.8,74,51,33,30.07,29.85,16,6,16,0.00
2013-3-27,59.7,46.7,33.6,31.9,27.2,20.4,82,51,23,30.17,30.06,14,4,15,0.00
2013-3-28,61.9,45.5,30.4,32.7,25.7,18.5,83,53,19,30.22,30.08,14,4,14,0.00
2013-3-29,68.5,48.8,28.9,42.8,29.4,19.0,94,56,15,30.26,30.09,10,2,11,0.00
2013-3-30,75.0,57.1,46.9,51.9,45.6,41.0,91,69,35,30.14,29.94,8,2,10,0.00
2013-3-31,78.8,64.9,53.2,59.9,55.5,48.2,98,73,46,29.96,29.74,15,5,17,0.11
2013-4-1,78.1,64.9,55.2,64.2,57.8,46.2,99,80,42,29.83,29.73,14,3,16,0.31
2013-4-2,73.9,58.2,44.8,47.2,43.8,38.3,97,63,31,30.05,29.84,14,3,14,0.00
2013-4-3,65.1,55.6,46.6,51.2,40.2,29.5,99,62,30,30.15,29.97,15,4,18,0.01
2013-4-4,51.1,48.2,44.6,49.4,46.3,42.0,99,93,78,30.14,29.78,16,5,21,0.58
2013-4-5,60.6,45.4,41.7,49.2,43.2,41.2,99,93,65,29.93,29.78,12,5,14,0.01
2013-4-6,74.3,57.4,39.7,51.8,41.3,34.1,99,64,24,30.13,29.93,14,4,14,0.00
2013-4-7,77.9,60.0,43.7,58.0,51.3,43.2,99,76,42,30.16,30.00,10,3,12,0.00
2013-4-8,81.0,58.0,0.0,62.9,48.6,0.0,99,65,41,30.09,29.97,8,2,8,0.00
2013-4-9,75.2,65.5,64.6,63.2,59.8,59.3,85,82,61,30.12,30.00,4,3,4,0.00
2013-4-10,86.4,71.2,57.6,66.4,61.5,54.5,98,75,39,30.06,29.90,12,4,12,0.00
2013-4-11,84.7,71.6,58.6,72.2,66.0,57.9,99,84,57,29.91,29.70,13,4,14,0.00
2013-4-12,83.5,74.2,66.9,73.9,67.2,49.8,98,80,52,29.73,29.59,18,5,23,0.70
2013-4-13,80.8,67.6,50.9,54.3,48.6,42.4,90,53,26,29.91,29.72,12,4,12,0.00
2013-4-14,72.7,62.1,48.7,63.3,56.9,48.5,99,85,58,29.99,29.86,8,2,9,0.14
2013-4-15,72.0,65.5,61.5,66.1,62.8,60.3,98,91,78,29.96,29.79,9,4,11,0.01
2013-4-16,63.0,62.5,62.2,60.7,60.6,60.4,94,93,92,30.12,30.11,2,0,2,0.00
2013-4-17,84.9,69.7,54.9,69.1,61.1,54.0,99,77,46,30.14,30.01,11,2,11,0.00
2013-4-18,84.4,71.0,59.7,69.7,63.1,58.8,99,78,49,30.05,29.91,14,4,15,0.00
2013-4-19,87.4,73.6,61.7,72.8,67.7,58.4,98,84,52,29.92,29.69,17,6,18,0.64
2013-4-20,67.3,56.5,46.4,58.4,47.5,41.4,95,75,43,30.14,29.84,13,4,14,0.21
2013-4-21,71.8,56.4,40.5,50.4,44.4,40.2,99,69,34,30.27,29.44,15,4,20,0.00
2013-4-22,69.1,57.0,47.7,47.4,42.1,30.9,88,59,40,29.93,29.76,17,7,18,0.00
2013-4-23,70.3,58.0,47.7,55.8,50.8,45.1,97,78,59,29.84,29.73,14,4,14,0.00
2013-4-24,83.3,66.1,49.3,64.1,56.1,49.0,99,74,39,29.79,29.64,10,3,11,0.00
2013-4-25,80.1,68.7,57.0,65.5,59.7,54.9,94,74,51,29.84,29.67,11,3,13,0.00
2013-4-26,78.1,65.4,55.0,58.6,53.1,44.4,99,69,31,30.00,29.83,12,3,14,0.00
2013-4-27,70.9,61.7,55.0,60.9,55.5,47.5,96,81,66,29.96,29.84,5,2,7,0.01
2013-4-28,70.2,63.2,51.6,67.6,60.9,49.6,98,92,81,29.84,29.62,11,2,15,0.45
2013-4-29,78.4,67.4,62.8,70.0,64.8,61.8,99,92,69,29.65,29.55,7,2,8,0.34
2013-4-30,77.0,67.1,59.7,66.5,63.4,59.5,99,89,66,29.72,29.56,11,3,11,0.00
2013-5-1,72.5,64.3,57.6,64.1,59.1,56.3,98,84,62,29.81,29.69,13,5,14,0.00
2013-5-2,72.5,66.7,62.8,62.9,61.4,59.8,92,83,68,29.81,29.73,15,6,21,0.00
2013-5-3,69.1,62.0,57.7,61.3,57.6,48.7,96,86,64,29.74,29.64,19,6,19,0.13
2013-5-4,66.6,59.7,53.6,59.0,53.6,47.4,90,81,64,29.65,29.51,15,7,22,0.00
2013-5-5,68.9,62.6,57.9,64.7,60.4,56.1,98,93,83,29.53,29.39,22,7,22,0.67
2013-5-6,75.7,64.7,55.8,63.4,55.7,46.3,99,76,36,29.52,29.41,9,3,13,0.01
2013-5-7,74.5,57.4,49.1,59.8,53.4,48.3,99,88,46,29.57,29.49,10,1,10,0.21
2013-5-8,81.3,61.9,50.7,60.0,55.3,49.9,98,81,45,29.63,29.55,9,2,9,0.00
2013-5-9,88.2,72.0,57.9,64.5,59.4,55.3,92,68,34,29.69,29.59,8,2,8,0.00
2013-5-10,89.4,75.8,61.9,66.2,62.0,58.6,92,65,38,29.69,29.58,13,3,13,0.00
2013-5-11,73.6,67.7,64.4,68.5,63.9,60.6,96,88,74,29.62,29.54,8,2,8,0.00
2013-5-13,75.0,64.7,48.9,45.4,39.9,33.7,87,45,23,29.75,29.64,11,4,13,0.00
2013-5-14,79.5,61.0,44.8,52.5,41.9,31.0,94,57,21,29.88,29.74,10,3,11,0.00
2013-5-15,91.6,72.4,59.5,62.7,57.1,50.5,75,61,34,29.75,29.57,10,3,10,0.00
2013-5-16,87.4,75.3,65.1,68.4,63.6,60.2,91,69,44,29.66,29.58,8,3,9,0.00
2013-5-17,91.2,77.6,64.9,69.2,64.7,61.4,94,68,38,29.71,29.62,6,3,9,0.00
2013-5-18,87.4,73.5,65.7,71.1,67.1,61.7,97,82,51,29.74,29.65,9,2,11,0.24
2013-5-19,85.6,71.9,68.0,74.3,69.5,67.0,99,93,61,29.73,29.65,15,2,19,0.05
2013-5-20,83.7,72.4,66.7,75.7,70.1,66.2,99,93,66,29.71,29.63,11,2,14,0.91
2013-5-21,85.6,72.8,64.8,75.8,69.7,64.5,99,91,67,29.67,29.57,14,3,14,0.01
2013-5-22,88.9,75.8,65.3,73.5,68.8,65.0,99,81,49,29.63,29.50,11,2,12,0.00
2013-5-23,87.8,75.2,67.1,73.7,68.6,66.0,99,82,51,29.56,29.44,11,2,11,0.00
2013-5-24,84.0,73.5,54.9,67.9,54.6,33.1,90,55,19,29.77,29.45,15,5,17,0.00
2013-5-25,81.3,63.7,46.0,53.5,45.1,35.2,94,58,20,29.92,29.76,11,2,13,0.00
2013-5-26,81.7,68.3,54.9,57.1,53.6,46.7,91,63,34,29.88,29.76,10,3,10,0.00
2013-5-27,87.1,70.9,53.8,67.7,59.6,52.9,98,72,41,29.86,29.74,9,2,10,0.00
2013-5-28,86.7,74.5,61.0,70.1,64.1,59.6,96,72,47,29.85,29.76,11,3,12,0.00
2013-5-29,87.1,74.2,60.3,71.1,64.2,59.7,98,74,46,29.85,29.76,11,3,14,0.00
2013-5-30,90.0,75.6,60.3,71.9,65.7,59.7,99,75,40,29.87,29.75,9,3,11,0.00
2013-5-31,89.8,77.6,65.1,75.1,68.9,64.6,99,77,47,29.83,29.71,9,3,11,0.00
2013-6-1,91.0,78.8,65.1,75.0,67.9,63.9,98,72,42,29.76,29.65,11,4,14,0.00
2013-6-2,88.9,78.0,69.3,74.8,71.2,67.0,96,81,55,29.71,29.51,11,4,13,0.02
2013-6-3,92.1,79.3,69.6,76.6,72.2,66.8,96,81,47,29.56,29.44,14,4,21,0.09
2013-6-4,89.2,73.7,65.3,76.5,70.0,65.0,99,89,54,29.64,29.51,8,2,8,0.00
2013-6-5,83.5,76.7,72.9,74.5,73.3,71.2,97,90,69,29.64,29.56,9,4,9,0.14
2013-6-6,84.4,75.0,71.1,74.3,72.0,70.2,98,91,65,29.57,29.32,8,3,8,0.94
2013-6-7,87.3,77.0,71.1,74.3,72.4,70.5,99,87,62,29.44,29.03,12,4,12,1.42
2013-6-8,90.5,78.9,71.8,73.7,70.8,67.5,95,78,48,29.69,29.45,9,3,12,0.00
2013-6-9,89.2,77.3,72.5,78.4,73.9,70.7,98,90,61,29.74,29.66,11,2,14,0.59
2013-6-10,91.8,78.1,72.0,76.8,74.1,70.5,98,88,56,29.70,29.57,12,4,15,0.64
2013-6-11,91.0,79.1,71.4,75.5,72.7,70.3,97,82,54,29.63,29.52,10,3,14,0.01
2013-6-12,97.9,83.5,72.0,77.5,73.5,69.4,98,75,41,29.59,29.50,8,2,8,0.00
2013-6-13,96.8,86.9,77.2,78.0,73.5,69.0,92,68,42,29.51,29.28,13,4,14,0.00
2013-6-14,87.8,79.1,71.8,73.7,65.0,58.9,95,66,39,29.60,29.34,13,4,13,0.04
2013-6-15,89.6,78.5,71.1,69.3,62.1,55.8,77,59,33,29.73,29.60,11,2,11,0.00
2013-6-16,89.6,77.4,62.4,70.1,64.5,59.4,93,67,43,29.77,29.65,10,3,12,0.00
2013-6-17,91.8,78.3,70.7,73.7,69.8,65.9,96,77,49,29.69,29.55,11,3,11,0.15
2013-6-18,91.2,78.4,71.6,77.1,72.8,69.8,96,84,57,29.61,29.44,12,4,18,0.22
2013-6-19,82.2,76.3,70.0,75.0,72.2,67.6,96,87,75,29.66,29.48,9,2,10,0.04
2013-6-20,86.5,76.3,68.2,71.1,68.3,65.3,95,78,50,29.77,29.65,12,4,14,0.07
2013-6-21,87.4,73.4,61.7,68.9,64.1,59.7,96,75,43,29.81,29.73,13,3,13,0.00
2013-6-22,87.3,76.2,66.6,73.9,70.1,65.1,95,82,61,29.78,29.69,9,2,9,0.00
2013-6-23,91.9,79.8,71.2,77.9,72.7,68.0,97,81,47,29.79,29.71,8,2,10,0.00
2013-6-24,92.3,79.7,71.4,77.8,72.9,69.0,97,82,48,29.83,29.73,11,2,12,0.13
2013-6-25,93.6,81.3,71.4,76.9,72.8,69.0,98,78,46,29.77,29.63,11,3,14,0.01
2013-6-26,92.7,79.6,72.9,75.3,72.1,69.3,94,79,53,29.67,29.54,11,4,14,0.22
2013-6-27,94.8,83.1,72.5,77.5,73.7,70.3,97,75,48,29.59,29.37,12,4,14,0.00
2013-6-28,95.9,85.0,75.7,76.8,73.3,70.4,92,70,48,29.41,29.24,13,4,13,0.00
2013-6-29,89.1,80.1,73.6,75.2,72.4,69.9,91,78,60,29.36,29.27,14,5,14,0.00
2013-6-30,89.6,77.6,72.0,76.4,73.4,69.2,97,88,59,29.45,29.32,11,3,14,0.70
2013-7-1,88.0,75.7,70.2,77.1,72.6,69.0,98,91,63,29.60,29.41,13,2,13,0.90
2013-7-2,80.2,75.6,73.4,76.4,74.2,72.2,98,95,86,29.75,29.60,17,3,17,1.07
2013-7-3,83.1,76.1,73.2,80.6,74.4,71.7,99,95,82,29.82,29.72,13,2,14,1.61
2013-7-4,88.3,79.7,73.2,78.9,75.2,71.6,99,87,65,29.83,29.75,15,4,16,0.17
2013-7-5,90.3,80.4,73.8,79.9,75.6,71.8,98,86,60,29.83,29.75,12,3,15,0.45
2013-7-6,87.4,78.5,72.1,79.2,74.7,71.3,99,89,69,29.83,29.73,14,2,15,0.25
2013-7-7,88.3,79.8,73.4,79.8,75.0,71.6,98,86,64,29.79,29.69,12,2,13,0.67
2013-7-8,90.1,80.6,73.4,78.6,74.7,72.2,98,83,59,29.80,29.70,8,2,8,0.01
2013-7-9,89.4,77.9,75.6,78.1,75.0,73.1,94,91,66,29.78,29.68,6,2,8,0.06
2013-7-10,91.6,81.9,74.8,76.9,73.3,68.9,96,77,50,29.73,29.56,11,3,11,0.01
2013-7-11,93.7,80.7,71.4,76.2,73.1,68.5,95,80,49,29.60,29.46,9,4,13,2.13
2013-7-12,84.9,75.9,71.2,75.8,72.5,68.6,97,89,73,29.56,29.44,11,2,11,0.83
2013-7-13,88.0,76.9,71.4,76.9,73.3,70.1,99,89,63,29.67,29.54,9,3,10,0.20
2013-7-14,88.7,80.1,73.4,77.5,73.8,71.0,96,82,59,29.83,29.67,14,5,18,0.66
2013-7-15,91.2,80.8,74.1,77.3,74.3,72.6,97,82,57,29.86,29.80,16,3,16,0.00
2013-7-16,93.2,81.0,72.1,80.2,73.9,71.2,98,81,51,29.90,29.80,8,2,9,0.00
2013-7-17,94.8,80.1,73.0,78.4,74.1,69.8,96,83,45,29.82,29.69,14,2,14,0.35
2013-7-18,93.2,80.9,70.9,77.5,73.5,70.0,98,80,52,29.77,29.66,6,2,7,0.00
2013-7-19,91.8,81.5,71.2,78.0,73.1,70.1,97,77,52,29.73,29.60,11,3,11,0.00
2013-7-20,89.8,79.8,74.5,78.2,73.3,70.4,94,82,57,29.68,29.57,11,4,14,0.13
2013-7-21,90.5,80.1,74.7,77.3,74.1,72.2,93,83,58,29.65,29.53,8,4,11,0.00
2013-7-22,91.0,81.8,75.2,74.9,73.2,71.1,92,76,53,29.60,29.48,12,4,12,0.00
2013-7-23,92.1,82.4,75.4,74.8,73.0,70.4,91,75,51,29.52,29.38,12,4,12,0.00
2013-7-24,89.1,79.7,73.8,76.1,73.6,71.3,92,82,61,29.43,29.33,7,2,9,0.00
2013-7-25,92.5,80.1,71.2,74.9,72.3,70.0,96,79,52,29.59,29.37,10,2,10,0.00
2013-7-26,91.8,80.2,70.2,75.9,71.4,67.5,95,77,45,29.67,29.57,8,2,10,0.00
2013-7-27,88.5,78.0,73.2,78.2,74.2,69.9,97,88,62,29.65,29.52,10,2,14,1.09
2013-7-28,91.0,79.3,71.8,76.8,73.6,70.6,98,84,52,29.62,29.51,6,2,7,0.01
2013-7-29,92.5,79.1,73.8,77.6,74.5,72.2,97,87,54,29.75,29.60,8,2,10,0.19
2013-7-30,91.6,79.1,69.8,77.4,73.4,69.2,98,84,52,29.78,29.69,8,2,8,0.00
2013-7-31,85.6,76.6,72.3,79.9,74.0,70.8,98,92,73,29.73,29.60,10,2,14,0.81
2013-8-1,86.9,77.9,73.6,78.4,74.3,72.4,97,89,68,29.60,29.50,8,3,10,0.19
2013-8-2,91.9,79.9,75.4,78.4,75.0,72.9,94,85,58,29.64,29.51,8,2,8,0.00
2013-8-3,94.1,83.0,75.2,79.4,75.4,72.0,97,80,50,29.64,29.52,7,2,8,0.00
2013-8-4,93.9,82.0,73.4,77.0,73.3,68.9,96,77,45,29.60,29.50,7,2,7,0.00
2013-8-5,88.5,79.2,70.5,73.9,70.1,65.5,96,76,49,29.65,29.56,12,3,12,0.00
2013-8-6,88.5,77.1,70.0,74.9,70.9,66.2,96,82,55,29.65,29.56,9,2,10,0.17
2013-8-7,89.6,78.9,71.8,75.9,71.7,67.5,98,81,50,29.68,29.59,9,2,11,0.01
2013-8-8,94.3,80.9,70.2,78.5,72.6,69.3,97,78,49,29.66,29.59,8,2,11,0.00
2013-8-9,95.2,84.1,75.0,80.5,75.0,71.5,96,76,47,29.70,29.61,10,3,10,0.00
2013-8-10,95.9,84.6,75.4,78.2,74.4,69.2,95,74,43,29.73,29.65,11,3,11,0.00
2013-8-11,97.3,85.9,76.8,77.5,74.0,69.4,92,70,43,29.74,29.63,11,3,11,0.00
2013-8-12,98.4,86.0,78.1,78.0,76.1,72.2,92,74,44,29.68,29.54,11,3,11,0.00
2013-8-13,94.3,83.6,74.8,78.7,75.7,71.1,95,78,53,29.59,29.42,15,4,17,0.52
2013-8-14,86.2,78.0,72.7,77.6,73.4,70.8,95,86,64,29.62,29.44,11,3,16,0.57
2013-8-15,72.7,66.5,61.3,70.9,64.7,60.5,98,94,83,29.70,29.60,16,4,16,1.17
2013-8-16,70.5,67.1,0.0,69.1,66.6,64.7,97,94,92,29.71,29.63,8,4,9,1.62
2013-8-17,73.0,69.7,67.1,69.8,68.1,66.5,99,95,87,29.76,29.64,8,2,8,0.01
2013-8-18,88.0,75.8,69.6,77.7,72.2,68.9,99,89,62,29.80,29.70,8,1,8,0.08
2013-8-19,87.6,76.7,73.2,77.3,74.2,72.1,98,92,69,29.75,29.65,10,2,11,0.11
2013-8-20,90.5,77.4,73.4,79.3,74.8,72.7,99,92,61,29.77,29.67,8,2,15,0.80
2013-8-21,93.6,78.6,72.3,80.3,74.0,70.6,99,87,53,29.83,29.70,9,1,11,0.08
2013-8-22,93.6,80.1,72.1,78.2,73.7,68.9,98,83,51,29.76,29.61,16,2,16,0.01
2013-8-23,90.7,79.4,72.3,78.5,74.0,70.7,96,84,58,29.66,29.55,8,2,8,0.00
2013-8-24,82.0,75.1,68.5,73.7,70.1,66.5,96,85,64,29.83,29.61,11,3,11,0.00
2013-8-25,83.7,72.2,62.6,67.9,62.7,58.9,98,75,44,29.93,29.83,13,3,19,0.01
2013-8-26,86.4,73.1,62.8,68.7,63.8,60.0,94,75,49,29.88,29.73,10,2,10,0.00
2013-8-27,89.4,75.7,63.5,73.2,67.0,62.7,98,78,47,29.75,29.59,8,2,8,0.00
2013-8-28,93.4,80.6,71.1,73.8,70.1,67.1,90,73,45,29.63,29.53,7,2,8,0.00
2013-8-29,97.0,81.5,72.9,78.9,72.1,69.1,95,75,48,29.56,29.45,18,3,21,0.00
2013-8-30,88.0,78.2,72.5,74.8,72.7,70.2,97,84,57,29.63,29.53,8,2,8,0.00
2013-8-31,92.3,79.3,70.7,77.0,73.2,69.5,98,83,52,29.59,29.48,6,2,7,0.00
2013-9-1,95.0,83.4,75.6,77.3,74.9,71.1,96,78,46,29.55,29.42,12,3,12,0.00
2013-9-2,94.3,82.2,74.3,77.7,74.1,68.4,93,78,50,29.53,29.42,11,3,11,0.00
2013-9-3,92.8,79.7,73.2,76.1,73.0,70.0,94,81,52,29.55,29.44,11,3,12,0.00
2013-9-4,95.0,80.6,71.4,77.3,72.6,67.6,97,79,42,29.67,29.53,11,2,15,0.39
2013-9-5,92.1,79.9,71.8,77.1,72.4,67.1,97,81,45,29.70,29.61,7,1,7,0.02
2013-9-6,89.1,76.4,66.7,71.6,68.4,65.5,98,79,48,29.71,29.62,8,2,11,0.00
2013-9-7,89.6,74.9,63.9,72.3,66.9,62.7,98,79,44,29.70,29.57,11,2,11,0.00
2013-9-8,92.7,77.7,65.8,75.9,68.3,63.6,98,77,39,29.60,29.50,9,2,9,0.00
2013-9-9,91.8,78.9,68.4,76.3,70.1,62.0,97,77,38,29.73,29.57,10,2,11,0.00
2013-9-10,90.5,78.2,68.4,75.0,69.7,67.4,98,78,47,29.83,29.72,10,2,10,0.00
2013-9-11,89.6,75.9,66.6,75.4,68.9,65.7,98,81,46,29.80,29.68,11,2,11,0.00
2013-9-12,92.3,79.3,67.3,76.3,69.4,66.6,98,75,45,29.69,29.47,8,2,8,0.00
2013-9-13,91.0,80.0,71.8,73.0,70.1,66.6,90,74,45,29.47,29.34,10,3,10,0.00
2013-9-14,82.8,73.0,64.6,67.2,61.2,53.2,87,67,52,29.67,29.41,10,4,11,0.00
2013-9-15,89.1,75.9,63.3,73.5,68.1,60.8,96,78,50,29.76,29.66,14,3,14,0.00
2013-9-16,88.2,77.6,72.1,75.4,72.5,69.9,96,85,59,29.72,29.62,8,1,10,0.00
2013-9-17,81.9,72.9,63.5,71.6,63.3,57.6,96,74,48,29.83,29.68,14,4,17,0.00
2013-9-18,80.6,68.0,57.0,60.9,56.9,53.7,93,70,42,29.85,29.74,11,3,11,0.00
2013-9-19,84.7,68.8,55.0,63.9,59.0,54.2,97,75,42,29.77,29.67,11,2,11,0.00
2013-9-20,88.5,74.6,62.8,72.3,65.5,61.5,98,76,42,29.69,29.54,8,2,8,0.00
2013-9-21,88.0,76.8,66.0,72.3,68.7,64.1,95,78,52,29.56,29.31,12,3,12,0.13
2013-9-22,83.5,73.9,64.2,72.2,67.9,62.8,95,83,54,29.48,29.28,11,4,11,0.01
2013-9-23,82.0,68.2,57.9,66.5,59.5,55.9,99,78,42,29.64,29.47,11,2,11,0.01
2013-9-24,81.5,67.4,55.6,63.6,58.2,54.9,99,76,41,29.66,29.52,11,2,11,0.00
2013-9-25,77.2,68.5,62.8,66.7,63.3,59.8,97,85,60,29.52,29.41,11,2,11,0.97
2013-9-26,78.8,66.3,60.8,65.6,63.1,59.1,98,91,58,29.57,29.42,9,3,9,0.35
2013-9-27,80.1,66.2,57.0,61.3,57.6,55.8,97,77,45,29.72,29.57,14,4,14,0.01
2013-9-28,77.5,64.2,55.0,60.8,57.3,54.2,97,81,50,29.78,29.70,14,3,14,0.01
2013-9-29,88.7,65.3,56.7,75.9,56.8,54.7,94,76,45,30.13,29.62,12,3,12,0.00
2013-9-30,79.2,64.1,52.9,62.0,56.8,52.3,99,80,46,29.99,29.89,8,1,10,0.00
2013-10-1,83.3,66.6,53.6,65.6,57.7,52.8,99,77,40,30.04,29.94,10,2,10,0.00
2013-10-2,87.1,69.2,58.1,67.7,61.1,57.3,98,79,41,30.05,29.96,6,2,6,0.01
2013-10-3,85.5,66.5,57.6,69.6,62.0,57.0,99,87,43,30.04,29.96,6,1,6,0.00
2013-10-4,88.3,72.3,61.3,74.5,65.3,60.7,99,82,44,30.05,29.96,7,1,8,0.00
2013-10-5,89.2,73.8,61.2,74.1,65.1,60.6,98,78,42,30.02,29.92,9,1,10,0.00
2013-10-6,90.0,75.1,64.8,75.7,69.6,63.6,98,85,49,29.96,29.81,11,2,11,0.00
2013-10-7,81.9,75.5,71.4,76.1,72.4,68.9,97,90,76,29.81,29.71,10,3,10,0.04
2013-10-8,72.7,63.5,56.7,71.5,58.7,54.1,97,85,71,30.01,29.78,20,8,20,0.15
2013-10-9,76.6,67.9,56.3,61.2,58.2,54.0,95,72,57,30.03,29.94,15,6,15,0.00
2013-10-10,79.9,67.0,57.9,62.9,56.8,52.5,92,71,49,29.97,29.85,14,4,14,0.00
2013-10-11,84.9,72.5,62.2,65.6,62.5,56.9,96,74,42,29.90,29.79,8,2,9,0.00
2013-10-12,84.7,71.3,60.1,67.7,63.6,59.2,98,79,45,29.94,29.84,8,1,10,0.00
2013-10-13,73.8,69.0,65.8,65.4,64.2,62.2,93,85,72,30.05,29.94,9,3,10,0.00
2013-10-14,72.3,68.5,66.2,65.3,63.9,61.8,92,86,76,30.05,29.98,14,6,14,0.00
2013-10-15,79.3,66.4,58.8,61.8,57.9,54.0,93,76,42,30.04,29.90,14,4,14,0.00
2013-10-16,79.2,67.1,58.6,65.9,61.6,56.8,94,83,56,29.94,29.85,8,1,8,0.00
2013-10-17,85.1,72.1,57.7,69.7,64.2,57.2,99,78,48,29.89,29.77,10,2,11,0.00
2013-10-18,75.7,69.8,65.8,72.6,67.6,64.8,98,93,85,29.88,29.78,6,1,6,0.39
2013-10-19,80.4,70.9,64.4,73.0,64.3,53.8,99,81,59,29.85,29.76,8,2,8,0.14
2013-10-20,72.3,63.8,53.4,56.5,53.6,50.1,96,71,48,29.98,29.82,14,3,14,0.00
2013-10-21,72.5,61.3,51.3,59.2,55.4,50.2,97,83,54,30.03,29.91,8,2,9,0.00
2013-10-22,60.4,60.0,59.0,60.0,58.5,58.2,99,95,93,29.93,29.87,2,0,2,0.00
2013-10-24,64.9,50.3,45.7,47.2,43.4,39.6,94,79,40,30.05,29.99,3,0,4,0.00
2013-10-25,62.4,51.5,38.1,50.0,38.4,30.3,94,65,31,30.26,30.03,14,4,17,0.00
2013-10-26,66.9,50.6,31.3,42.7,35.6,28.4,96,62,24,30.25,30.03,9,2,11,0.00
2013-10-27,75.0,54.6,41.0,51.8,45.0,39.1,97,74,39,30.05,29.96,7,1,10,0.00
2013-10-28,75.4,60.2,51.4,62.1,56.1,49.8,98,88,57,30.16,30.02,4,1,4,0.04
2013-10-29,79.3,62.4,48.4,64.8,54.4,48.1,99,79,42,30.24,30.13,7,1,8,0.00
2013-10-30,81.3,63.5,50.0,65.6,55.4,49.7,99,79,41,30.22,30.07,7,1,7,0.00
2013-10-31,81.3,67.5,51.8,67.1,60.2,51.3,99,80,51,30.11,29.87,11,2,13,0.00
2013-11-1,83.5,72.6,67.3,68.7,66.5,65.0,97,82,54,29.86,29.62,13,4,21,0.79
2013-11-2,75.6,65.4,51.4,66.4,56.2,45.5,97,76,38,29.86,29.64,11,3,11,0.00
2013-11-3,68.5,54.4,42.4,50.3,41.2,35.4,93,65,30,30.21,29.85,12,3,14,0.00
2013-11-4,65.3,49.8,40.3,44.7,38.1,31.2,96,70,30,30.37,30.19,14,3,17,0.00
2013-11-5,68.0,52.7,39.9,56.0,46.7,35.8,91,81,57,30.36,30.25,14,4,14,0.00
2013-11-6,76.5,61.9,49.5,62.1,55.7,47.8,96,82,58,30.25,29.99,9,2,11,0.00
2013-11-7,78.3,62.9,57.2,64.2,56.6,34.5,96,82,42,30.00,29.82,11,2,12,0.00
2013-11-8,63.3,49.3,36.9,38.6,33.1,22.9,91,59,22,30.21,29.99,14,4,18,0.00
2013-11-9,66.7,48.7,32.0,48.3,39.7,30.0,98,74,39,30.27,30.13,6,1,7,0.00
2013-11-10,73.0,56.1,43.0,53.4,45.8,38.0,97,74,29,30.16,30.03,8,1,9,0.00
2013-11-11,66.9,50.2,38.5,44.2,40.0,33.5,99,73,33,30.22,30.06,14,2,14,0.00
2013-11-12,74.5,53.3,36.5,52.7,38.7,30.1,99,65,21,30.30,29.90,25,5,27,0.00
2013-11-13,50.4,37.1,26.6,33.7,23.3,14.2,90,61,25,30.44,30.29,17,5,17,0.01
2013-11-14,63.9,40.2,23.7,35.6,27.0,19.9,91,65,24,30.41,30.23,9,1,9,0.00
2013-11-15,63.0,51.6,35.2,55.1,47.1,32.1,98,85,68,30.24,30.06,5,1,7,0.00
2013-11-16,78.6,61.6,49.6,62.2,55.8,49.4,99,83,51,30.13,30.03,8,2,8,0.00
2013-11-17,77.0,62.2,49.5,68.2,59.8,49.2,99,92,68,30.08,29.86,7,1,9,0.00
2013-11-18,85.6,71.8,58.5,72.4,62.7,38.8,97,76,46,29.87,29.69,10,3,11,0.01
2013-11-19,63.5,51.7,41.2,38.9,32.0,22.4,74,50,21,30.12,29.83,17,4,18,0.00
2013-11-20,59.4,50.5,41.5,41.4,37.1,32.4,72,60,51,30.26,30.11,16,6,16,0.00
2013-11-21,68.2,57.4,50.0,52.9,47.7,41.1,84,70,55,30.32,30.22,12,4,12,0.00
2013-11-22,77.7,61.5,51.3,63.9,57.5,49.0,96,87,61,30.25,30.02,7,1,8,0.00
2013-11-23,67.6,62.0,52.7,65.9,60.1,40.4,99,94,61,30.03,29.91,15,2,15,0.04
2013-11-24,52.3,39.9,25.5,40.2,18.0,7.1,67,44,20,30.43,30.03,19,6,22,0.00
2013-11-25,51.6,38.4,23.0,25.8,15.6,1.3,63,42,19,30.46,30.19,12,4,14,0.00
2013-11-26,70.2,53.8,41.9,69.4,50.1,24.2,99,88,48,30.19,29.48,14,4,14,1.42
2013-11-27,70.0,48.1,33.8,68.1,45.1,23.8,99,89,64,30.12,29.40,19,5,19,0.46
2013-11-28,49.6,34.9,26.4,29.1,24.6,20.3,91,68,41,30.40,30.12,10,2,11,0.00
2013-11-29,58.3,40.8,26.4,38.6,30.2,23.8,98,70,30,30.45,30.35,11,2,11,0.00
2013-11-30,55.8,43.2,31.8,39.3,33.3,26.1,88,69,47,30.47,30.23,12,4,17,0.00
2013-12-1,61.3,50.3,41.4,51.2,44.8,38.4,97,82,64,30.23,29.90,7,2,7,0.00
2013-12-2,64.9,52.9,43.9,51.3,46.1,40.3,98,80,42,29.91,29.71,10,2,10,0.00
2013-12-3,66.7,55.6,45.3,55.6,50.9,44.0,97,86,60,29.88,29.77,5,1,8,0.17
2013-12-4,75.0,61.9,55.2,65.3,58.7,54.4,99,90,67,29.99,29.86,7,2,8,0.48
2013-12-5,78.8,65.9,55.6,67.2,62.5,55.0,99,90,61,30.06,29.96,10,2,11,0.00
2013-12-6,82.8,70.7,63.0,67.9,64.1,60.4,95,81,53,30.04,29.92,11,4,12,0.00
2013-12-7,70.3,59.6,45.1,67.5,57.8,44.3,98,94,87,30.27,29.96,21,5,21,0.54
2013-12-8,45.0,42.6,40.5,44.2,42.1,40.2,99,98,97,30.28,30.17,14,5,14,0.28
2013-12-9,57.2,49.4,40.1,56.9,49.1,39.8,99,99,97,30.17,29.93,5,2,7,0.02
2013-12-10,73.0,59.1,42.4,69.0,55.4,41.4,99,88,60,30.23,29.85,16,4,18,0.06
2013-12-11,56.3,39.4,30.4,41.4,32.1,21.4,99,80,29,30.36,30.19,10,2,11,0.01
2013-12-12,54.7,39.5,28.9,38.9,28.5,21.5,98,70,28,30.31,30.17,14,2,14,0.00
2013-12-13,57.7,41.3,26.6,40.7,29.1,20.8,95,68,24,30.31,30.15,8,2,10,0.00
2013-12-14,67.8,58.7,41.5,65.8,55.1,36.5,96,88,71,30.15,29.69,14,4,14,0.85
2013-12-15,60.8,52.0,40.1,59.7,47.4,39.3,98,85,62,30.03,29.67,14,3,15,0.02
2013-12-16,62.8,44.2,31.3,39.5,35.1,29.0,91,73,38,30.11,30.03,7,2,8,0.01
2013-12-17,68.5,51.8,36.3,38.2,34.5,27.8,92,56,22,30.11,29.94,13,4,13,0.00
2013-12-18,58.3,45.5,30.7,39.3,26.7,14.4,88,54,20,30.23,29.97,13,2,13,0.00
2013-12-19,65.8,44.6,28.4,47.6,35.1,26.4,97,74,30,30.27,30.14,7,1,9,0.00
2013-12-20,74.5,55.7,43.2,57.0,48.7,41.9,98,80,47,30.17,30.04,11,1,11,0.00
2013-12-21,80.4,62.8,45.7,66.2,57.1,44.9,99,84,53,30.07,29.93,11,3,13,0.00
2013-12-22,83.7,73.2,64.2,69.5,65.9,60.5,98,80,49,30.00,29.93,17,5,17,0.00
2013-12-23,74.8,66.9,57.9,69.5,64.4,57.1,97,92,81,30.02,29.91,16,4,16,0.20
2013-12-24,58.8,50.5,38.7,57.1,38.8,25.2,98,67,33,30.30,29.97,12,5,14,0.02
2013-12-25,48.2,37.9,26.6,28.3,22.0,14.9,71,53,35,30.42,30.26,13,4,13,0.00
2013-12-26,45.7,41.4,36.3,42.6,36.9,26.8,97,84,61,30.27,30.15,7,2,7,0.08
2013-12-27,55.6,41.2,32.0,36.0,31.8,28.6,96,73,37,30.34,30.22,9,2,11,0.01
2013-12-28,61.5,45.0,28.4,45.3,33.8,24.8,94,70,25,30.31,29.95,7,1,10,0.08
2013-12-29,72.1,60.2,47.8,68.1,56.8,45.3,99,90,61,29.95,29.69,18,5,24,0.57
2013-12-30,50.0,49.2,48.6,47.3,46.3,45.4,91,90,84,30.06,30.00,2,1,2,0.00
2013-12-31,56.5,47.2,38.1,46.9,41.7,36.2,94,82,48,30.28,30.04,10,2,10,0.00
2014-1-1,50.9,43.4,35.6,42.9,38.6,33.5,99,84,60,30.28,30.04,4,1,6,0.00
2014-1-2,53.4,48.3,44.6,52.3,46.2,35.6,98,93,69,30.04,29.57,16,3,24,0.72